Time;durP1;ratioP1;P1;durP2;ratioP2;P2;SDS_P1;SDS_P2;PMS_P1;PMS_P2;Temp;Humidity;BMP_temperature;BMP_pressure;BME280_temperature;BME280_humidity;BME280_pressure;Samples;Min_cycle;Max_cycle;Signal;HPM_P1;HPM_P2
2022/01/26 00:00:43;;;;;;;76.57;35.70;;;4.90;99.90;;;;;;4970878;28;20399;-81
2022/01/26 00:06:01;;;;;;;72.88;34.08;;;5.00;99.90;;;;;;4973632;28;20386;-81
2022/01/26 00:08:27;;;;;;;77.90;36.83;;;5.00;99.90;;;;;;4970306;28;20391;-81
2022/01/26 00:10:53;;;;;;;77.78;36.72;;;5.00;99.90;;;;;;5037664;28;20418;-80
2022/01/26 00:13:19;;;;;;;79.10;35.35;;;4.90;99.90;;;;;;5039258;28;20398;-81
2022/01/26 00:15:44;;;;;;;76.70;35.70;;;4.90;99.90;;;;;;4973320;28;20383;-81
2022/01/26 00:18:10;;;;;;;77.27;35.90;;;5.00;99.90;;;;;;4973085;28;20437;-81
2022/01/26 00:20:45;;;;;;;78.38;35.67;;;5.00;99.90;;;;;;5039310;28;20406;-81
2022/01/26 00:25:58;;;;;;;77.70;36.30;;;5.00;99.90;;;;;;4972891;28;20434;-81
2022/01/26 00:28:34;;;;;;;76.05;36.22;;;4.90;99.90;;;;;;4972712;28;20425;-81
2022/01/26 00:31:59;;;;;;;75.45;35.53;;;4.90;99.90;;;;;;5039406;28;20426;-81
2022/01/26 00:39:26;;;;;;;74.40;35.58;;;4.90;99.90;;;;;;4972469;28;20409;-80
2022/01/26 00:41:56;;;;;;;75.45;35.63;;;4.90;99.90;;;;;;4973437;28;20395;-81
2022/01/26 00:44:22;;;;;;;67.32;34.70;;;5.00;99.90;;;;;;5039192;28;20464;-81
2022/01/26 00:46:48;;;;;;;69.45;35.10;;;5.00;99.90;;;;;;4971584;28;20891;-80
2022/01/26 00:49:16;;;;;;;72.53;35.13;;;5.00;99.90;;;;;;4971957;28;20427;-80
2022/01/26 00:51:42;;;;;;;73.40;35.05;;;4.90;99.90;;;;;;5037959;28;20450;-80
2022/01/26 00:54:09;;;;;;;72.40;35.78;;;4.90;99.90;;;;;;4972507;28;20402;-81
2022/01/26 00:56:34;;;;;;;76.45;36.10;;;4.90;99.90;;;;;;4970399;28;20397;-80
2022/01/26 00:59:01;;;;;;;69.50;34.30;;;4.90;99.90;;;;;;4977003;28;20395;-79
2022/01/26 01:01:27;;;;;;;70.15;34.42;;;4.90;99.90;;;;;;4972153;28;20387;-81
2022/01/26 01:03:52;;;;;;;67.70;33.88;;;4.90;99.90;;;;;;4970050;28;20398;-80
2022/01/26 01:06:24;;;;;;;71.10;34.65;;;5.00;99.90;;;;;;4969308;28;20387;-80
2022/01/26 01:08:50;;;;;;;70.22;34.13;;;4.90;99.90;;;;;;4970428;28;20406;-80
2022/01/26 01:11:16;;;;;;;67.68;34.25;;;4.90;99.90;;;;;;4969934;28;20889;-81
2022/01/26 01:13:43;;;;;;;69.97;33.57;;;4.90;99.90;;;;;;5035452;28;20395;-80
2022/01/26 01:16:15;;;;;;;70.70;33.65;;;5.00;99.90;;;;;;5036861;28;20815;-80
2022/01/26 01:18:50;;;;;;;70.40;33.92;;;5.00;99.90;;;;;;4970079;28;20493;-82
2022/01/26 01:29:15;;;;;;;73.68;33.55;;;4.90;99.90;;;;;;4970212;28;20441;-81
2022/01/26 01:34:15;;;;;;;72.67;34.53;;;4.90;99.90;;;;;;4970305;28;20773;-81
2022/01/26 01:36:44;;;;;;;76.40;34.42;;;4.90;99.90;;;;;;4969613;28;20857;-80
2022/01/26 01:39:10;;;;;;;76.17;35.03;;;4.80;99.90;;;;;;4967954;28;20439;-80
2022/01/26 01:41:38;;;;;;;75.10;34.83;;;4.80;99.90;;;;;;4969612;28;20374;-81
2022/01/26 01:44:05;;;;;;;70.45;34.83;;;4.80;99.90;;;;;;5036533;28;20390;-81
2022/01/26 01:46:31;;;;;;;72.00;33.65;;;4.90;99.90;;;;;;4968916;28;20387;-80
2022/01/26 01:48:57;;;;;;;71.90;34.15;;;4.90;99.90;;;;;;4968911;28;20411;-80
2022/01/26 01:51:31;;;;;;;71.67;34.97;;;4.90;99.90;;;;;;5036196;28;20417;-81
2022/01/26 01:53:56;;;;;;;77.93;35.60;;;4.90;99.90;;;;;;4969239;28;20481;-80
2022/01/26 01:56:25;;;;;;;73.00;35.40;;;4.90;99.90;;;;;;4969578;28;20399;-81
2022/01/26 01:58:52;;;;;;;73.55;34.10;;;5.00;99.90;;;;;;4968160;28;20985;-81
2022/01/26 02:01:18;;;;;;;72.88;33.63;;;4.90;99.90;;;;;;4968171;28;20403;-80
2022/01/26 02:03:44;;;;;;;73.53;33.93;;;4.90;99.90;;;;;;4969441;28;20398;-80
2022/01/26 02:06:09;;;;;;;78.33;35.20;;;4.90;99.90;;;;;;4969002;28;20383;-82
2022/01/26 02:08:35;;;;;;;72.82;34.28;;;4.80;99.90;;;;;;4968635;28;20387;-81
2022/01/26 02:11:01;;;;;;;72.57;34.05;;;4.90;99.90;;;;;;4967417;28;20765;-81
2022/01/26 02:13:31;;;;;;;80.53;35.47;;;4.80;99.90;;;;;;4970257;28;20426;-81
2022/01/26 02:51:28;;;;;;;62.53;31.92;;;4.70;99.90;;;;;;4972311;28;21144;-81
2022/01/26 03:01:56;;;;;;;63.85;33.42;;;4.70;99.90;;;;;;4932193;28;21149;-81
2022/01/26 03:07:08;;;;;;;65.83;33.90;;;4.70;99.90;;;;;;4973763;28;20510;-80
2022/01/26 03:09:40;;;;;;;65.05;33.20;;;4.60;99.90;;;;;;5038892;28;20475;-80
2022/01/26 03:12:08;;;;;;;62.23;31.73;;;4.70;99.90;;;;;;4970527;28;20904;-81
2022/01/26 03:14:51;;;;;;;64.07;33.65;;;4.70;99.90;;;;;;4970982;28;20417;-80
2022/01/26 03:20:07;;;;;;;65.70;33.47;;;4.50;99.90;;;;;;4970247;28;20451;-80
2022/01/26 03:28:22;;;;;;;71.53;33.58;;;4.60;99.90;;;;;;4969979;28;20397;-81
2022/01/26 03:31:15;;;;;;;71.40;34.03;;;4.50;99.90;;;;;;4969477;28;20481;-80
2022/01/26 03:33:53;;;;;;;63.22;32.85;;;4.50;99.90;;;;;;4970907;28;20426;-80
2022/01/26 03:36:21;;;;;;;68.43;33.72;;;4.50;99.90;;;;;;4970880;28;20389;-80
2022/01/26 03:38:56;;;;;;;68.95;34.08;;;4.50;99.90;;;;;;4970745;28;21229;-79
2022/01/26 03:43:47;;;;;;;63.75;31.70;;;4.50;99.90;;;;;;4971643;28;20394;-81
2022/01/26 03:46:12;;;;;;;65.57;32.70;;;4.60;99.90;;;;;;4971392;28;20422;-80
2022/01/26 03:48:38;;;;;;;68.40;33.50;;;4.60;99.90;;;;;;4970052;28;20395;-80
2022/01/26 03:51:04;;;;;;;64.80;32.92;;;4.60;99.90;;;;;;4971260;28;20430;-80
2022/01/26 03:53:30;;;;;;;66.68;33.35;;;4.70;99.90;;;;;;4971577;28;20398;-81
2022/01/26 03:55:55;;;;;;;66.90;33.38;;;4.50;99.90;;;;;;4969762;28;20386;-81
2022/01/26 03:58:21;;;;;;;64.27;31.53;;;4.50;99.90;;;;;;5036785;28;20457;-81
2022/01/26 04:00:47;;;;;;;61.60;32.07;;;4.50;99.90;;;;;;4972814;28;20391;-81
2022/01/26 04:03:12;;;;;;;60.63;31.10;;;4.50;99.90;;;;;;4971548;28;20417;-81
2022/01/26 04:05:38;;;;;;;55.50;30.45;;;4.50;99.90;;;;;;5038074;28;20957;-81
2022/01/26 04:08:10;;;;;;;60.25;31.15;;;4.60;99.90;;;;;;5038010;28;20395;-81
2022/01/26 04:10:56;;;;;;;59.03;29.45;;;4.60;99.90;;;;;;4973525;28;20969;-81
2022/01/26 04:13:22;;;;;;;54.80;29.15;;;4.60;99.90;;;;;;5040977;28;20399;-81
2022/01/26 04:15:48;;;;;;;56.53;28.70;;;4.50;99.90;;;;;;4972088;28;20491;-82
2022/01/26 04:18:19;;;;;;;52.55;28.02;;;4.50;99.90;;;;;;5037318;28;20399;-81
2022/01/26 04:20:48;;;;;;;49.53;27.45;;;4.50;99.90;;;;;;5038209;28;20410;-80
2022/01/26 04:23:25;;;;;;;47.95;25.75;;;4.50;99.90;;;;;;4970545;28;20410;-81
2022/01/26 04:25:52;;;;;;;45.20;25.63;;;4.50;99.90;;;;;;4973335;28;20394;-80
2022/01/26 04:28:25;;;;;;;44.33;24.67;;;4.40;99.90;;;;;;5040987;28;20470;-81
2022/01/26 04:30:50;;;;;;;46.30;25.05;;;4.40;99.90;;;;;;5038473;28;20422;-81
2022/01/26 04:33:16;;;;;;;44.03;24.47;;;4.30;99.90;;;;;;4970989;28;20417;-81
2022/01/26 04:35:45;;;;;;;40.63;22.73;;;4.30;99.90;;;;;;4972735;28;20478;-81
2022/01/26 04:43:41;;;;;;;38.17;22.10;;;4.20;99.90;;;;;;4973775;28;20395;-81
2022/01/26 04:46:08;;;;;;;40.45;22.35;;;4.20;99.90;;;;;;4970072;28;20398;-81
2022/01/26 04:48:33;;;;;;;37.47;22.15;;;4.20;99.90;;;;;;5035270;28;20494;-80
2022/01/26 04:50:59;;;;;;;38.17;21.35;;;4.10;99.90;;;;;;4970570;28;20513;-81
2022/01/26 04:53:25;;;;;;;36.97;21.58;;;4.20;99.90;;;;;;4971966;28;20470;-80
2022/01/26 04:55:52;;;;;;;35.20;20.60;;;4.20;99.90;;;;;;4970237;28;20391;-80
2022/01/26 04:58:17;;;;;;;35.90;20.37;;;4.20;99.90;;;;;;4968945;28;21000;-81
2022/01/26 05:00:43;;;;;;;37.70;20.33;;;4.10;99.90;;;;;;4972067;28;20386;-81
2022/01/26 05:03:09;;;;;;;36.03;19.97;;;4.10;99.90;;;;;;4953642;28;20400;-81
2022/01/26 05:05:35;;;;;;;38.00;20.95;;;4.10;99.90;;;;;;5020351;28;20404;-80
2022/01/26 05:08:00;;;;;;;33.53;20.13;;;4.10;99.90;;;;;;4968287;28;20906;-80
2022/01/26 05:10:26;;;;;;;36.83;20.08;;;4.10;99.90;;;;;;4972019;28;20401;-80
2022/01/26 05:12:52;;;;;;;35.42;20.08;;;4.10;99.90;;;;;;5037183;28;20461;-80
2022/01/26 05:15:21;;;;;;;35.15;19.23;;;4.10;99.90;;;;;;5040198;28;20457;-80
2022/01/26 05:17:47;;;;;;;35.88;20.83;;;4.10;99.90;;;;;;4972573;28;20391;-80
2022/01/26 05:20:13;;;;;;;35.58;19.35;;;4.10;99.90;;;;;;4970708;28;20389;-80
2022/01/26 05:22:40;;;;;;;33.47;18.85;;;4.10;99.90;;;;;;4969413;28;20864;-80
2022/01/26 05:25:07;;;;;;;38.20;20.13;;;4.10;99.90;;;;;;4972588;28;20497;-80
2022/01/26 05:27:33;;;;;;;35.75;19.25;;;4.00;99.90;;;;;;4973455;28;20399;-80
2022/01/26 05:29:59;;;;;;;37.13;20.00;;;4.00;99.90;;;;;;4971708;28;20383;-80
2022/01/26 05:32:25;;;;;;;36.97;20.17;;;3.90;99.90;;;;;;4972696;28;20409;-81
2022/01/26 05:34:51;;;;;;;39.58;20.75;;;3.90;99.90;;;;;;4973077;28;20823;-80
2022/01/26 05:37:17;;;;;;;35.17;19.98;;;4.00;99.90;;;;;;5040061;28;20444;-79
2022/01/26 05:39:42;;;;;;;38.87;21.03;;;4.10;99.90;;;;;;4973193;28;20386;-81
2022/01/26 05:42:08;;;;;;;41.40;22.13;;;4.00;99.90;;;;;;4974708;28;20403;-80
2022/01/26 05:44:34;;;;;;;38.67;20.75;;;4.00;99.90;;;;;;4972099;28;20395;-81
2022/01/26 05:47:00;;;;;;;39.70;21.63;;;3.90;99.90;;;;;;5039189;28;20421;-81
2022/01/26 05:49:26;;;;;;;36.63;20.10;;;3.90;99.90;;;;;;5036956;28;20481;-81
2022/01/26 05:51:52;;;;;;;37.20;21.35;;;3.90;99.90;;;;;;4973291;28;20436;-81
2022/01/26 05:54:18;;;;;;;40.75;22.55;;;3.90;99.90;;;;;;4969852;28;20388;-81
2022/01/26 05:56:47;;;;;;;39.55;21.40;;;3.90;99.90;;;;;;5037859;28;20405;-80
2022/01/26 05:59:16;;;;;;;42.78;22.58;;;3.90;99.90;;;;;;5038230;28;20899;-81
2022/01/26 06:01:42;;;;;;;43.17;23.00;;;3.90;99.90;;;;;;5036760;28;20442;-81
2022/01/26 06:04:08;;;;;;;41.78;22.95;;;3.80;99.90;;;;;;5034700;28;21197;-80
2022/01/26 06:06:33;;;;;;;43.43;23.93;;;3.90;99.90;;;;;;4968215;28;20391;-81
2022/01/26 06:08:59;;;;;;;41.85;23.17;;;4.00;99.90;;;;;;4969044;28;20836;-80
2022/01/26 06:11:25;;;;;;;52.30;25.88;;;3.90;99.90;;;;;;4974030;28;20458;-81
2022/01/26 06:13:50;;;;;;;49.97;24.85;;;3.80;99.90;;;;;;5041507;28;20421;-80
2022/01/26 06:16:16;;;;;;;48.97;25.50;;;3.80;99.90;;;;;;4973962;28;20458;-80
2022/01/26 06:18:45;;;;;;;47.37;25.87;;;3.70;99.90;;;;;;4973171;28;20393;-81
2022/01/26 06:21:10;;;;;;;47.83;25.05;;;3.80;99.90;;;;;;4963102;28;20541;-81
2022/01/26 06:23:36;;;;;;;46.92;24.83;;;3.70;99.90;;;;;;5039015;28;20410;-81
2022/01/26 06:26:02;;;;;;;46.23;25.50;;;3.80;99.90;;;;;;5044129;28;20386;-82
2022/01/26 06:28:28;;;;;;;48.83;26.77;;;3.90;99.90;;;;;;5046593;28;20799;-81
2022/01/26 06:30:59;;;;;;;50.45;27.02;;;3.90;99.90;;;;;;5042201;28;20452;-81
2022/01/26 06:33:26;;;;;;;46.83;25.65;;;3.80;99.90;;;;;;5050329;28;20390;-82
2022/01/26 06:35:52;;;;;;;51.58;27.58;;;3.90;99.90;;;;;;4981793;28;20386;-81
2022/01/26 06:38:18;;;;;;;52.10;28.00;;;4.00;99.90;;;;;;4980946;28;20482;-82
2022/01/26 06:40:43;;;;;;;50.42;27.02;;;3.90;99.90;;;;;;4979944;28;20379;-81
2022/01/26 06:43:13;;;;;;;50.55;27.15;;;3.90;99.90;;;;;;4980716;28;20871;-81
2022/01/26 06:45:47;;;;;;;50.95;27.15;;;3.80;99.90;;;;;;4980557;28;20405;-82
2022/01/26 06:50:50;;;;;;;50.38;26.95;;;3.90;99.90;;;;;;4980321;28;20513;-82
2022/01/26 06:53:16;;;;;;;50.92;26.58;;;3.90;99.90;;;;;;4979048;28;20422;-82
2022/01/26 06:55:41;;;;;;;46.23;25.50;;;3.90;99.90;;;;;;4980011;28;20387;-81
2022/01/26 06:58:07;;;;;;;49.23;26.67;;;3.90;99.90;;;;;;4981545;28;20378;-82
2022/01/26 07:00:33;;;;;;;51.03;26.63;;;3.90;99.90;;;;;;5048212;28;20480;-81
2022/01/26 07:02:59;;;;;;;48.00;25.73;;;3.90;99.90;;;;;;5047702;28;20382;-82
2022/01/26 07:05:25;;;;;;;49.03;26.20;;;3.90;99.90;;;;;;4980596;28;20382;-82
2022/01/26 07:07:51;;;;;;;47.05;26.17;;;4.00;99.90;;;;;;4981604;28;20419;-81
2022/01/26 07:10:17;;;;;;;45.83;25.40;;;4.00;99.90;;;;;;5046575;28;20390;-81
2022/01/26 07:12:42;;;;;;;46.43;25.00;;;4.00;99.90;;;;;;4980425;28;20382;-81
2022/01/26 07:23:22;;;;;;;42.90;23.63;;;4.00;99.90;;;;;;4980189;28;20395;-82
2022/01/26 07:25:48;;;;;;;44.78;23.77;;;3.90;99.90;;;;;;5044354;28;20390;-81
2022/01/26 07:28:16;;;;;;;45.58;24.85;;;3.90;99.90;;;;;;4978959;28;20393;-82
2022/01/26 07:30:44;;;;;;;44.65;23.55;;;3.90;99.90;;;;;;4980907;28;20407;-82
2022/01/26 07:33:09;;;;;;;43.42;23.60;;;4.00;99.90;;;;;;4970663;28;20384;-81
2022/01/26 07:35:35;;;;;;;43.28;23.63;;;4.10;99.90;;;;;;4960717;28;20399;-81
2022/01/26 07:38:02;;;;;;;43.22;23.70;;;4.10;99.90;;;;;;4958230;28;20425;-82
2022/01/26 07:40:28;;;;;;;42.90;23.80;;;4.10;99.90;;;;;;4977666;28;20399;-81
2022/01/26 07:42:54;;;;;;;41.60;24.38;;;4.10;99.90;;;;;;5044835;28;20429;-82
2022/01/26 07:45:21;;;;;;;42.20;22.98;;;4.10;99.90;;;;;;4976996;28;20402;-81
2022/01/26 07:47:51;;;;;;;43.95;23.38;;;4.10;99.90;;;;;;5025539;28;20393;-81
2022/01/26 07:50:17;;;;;;;43.17;23.52;;;4.10;99.90;;;;;;4964115;28;20413;-82
2022/01/26 07:52:43;;;;;;;44.10;24.42;;;4.20;99.90;;;;;;4976153;28;20403;-81
2022/01/26 07:55:13;;;;;;;42.33;22.83;;;4.10;99.90;;;;;;5042138;28;20509;-81
2022/01/26 07:57:39;;;;;;;40.33;23.02;;;4.20;99.90;;;;;;4975331;28;20391;-81
2022/01/26 08:00:07;;;;;;;39.83;22.57;;;4.20;99.90;;;;;;5041768;28;20398;-81
2022/01/26 08:02:32;;;;;;;42.20;23.73;;;4.20;99.90;;;;;;4975824;28;20407;-82
2022/01/26 08:04:58;;;;;;;41.83;23.37;;;4.20;99.90;;;;;;4976235;28;20417;-81
2022/01/26 08:07:24;;;;;;;42.67;23.87;;;4.20;99.90;;;;;;4975116;28;20387;-81
2022/01/26 08:09:49;;;;;;;43.33;23.10;;;4.10;99.90;;;;;;5043018;28;20383;-81
2022/01/26 08:12:15;;;;;;;44.20;23.52;;;4.20;99.90;;;;;;4977411;28;20402;-82
2022/01/26 08:14:42;;;;;;;39.60;22.70;;;4.10;99.90;;;;;;5042623;28;20390;-82
2022/01/26 08:17:09;;;;;;;44.63;24.15;;;4.20;99.90;;;;;;5013582;28;20386;-82
2022/01/26 08:19:35;;;;;;;41.95;22.88;;;4.30;99.90;;;;;;5051627;28;20420;-82
2022/01/26 08:22:02;;;;;;;40.13;23.40;;;4.30;99.90;;;;;;5042425;28;20398;-82
2022/01/26 08:24:28;;;;;;;40.05;22.98;;;4.30;99.90;;;;;;4974680;28;20410;-81
2022/01/26 08:26:57;;;;;;;42.55;23.05;;;4.30;99.90;;;;;;4974971;28;20471;-82
2022/01/26 08:29:39;;;;;;;40.97;23.63;;;4.20;99.90;;;;;;4975370;28;20395;-81
2022/01/26 08:32:05;;;;;;;37.78;22.55;;;4.20;99.90;;;;;;4974706;28;20415;-81
2022/01/26 08:34:30;;;;;;;40.97;23.98;;;4.30;99.90;;;;;;4992155;28;20387;-81
2022/01/26 08:36:56;;;;;;;38.13;22.77;;;4.30;99.90;;;;;;5013713;28;20402;-81
2022/01/26 08:39:22;;;;;;;41.00;23.30;;;4.30;99.90;;;;;;4974503;28;21035;-82
2022/01/26 08:41:47;;;;;;;40.87;22.63;;;4.40;99.90;;;;;;4974725;28;20402;-80
2022/01/26 08:44:13;;;;;;;38.10;22.70;;;4.40;99.90;;;;;;4973788;28;20886;-80
2022/01/26 08:46:39;;;;;;;37.80;22.65;;;4.40;99.90;;;;;;4974533;28;20387;-79
2022/01/26 08:49:05;;;;;;;34.95;21.60;;;4.30;99.90;;;;;;5042093;28;20459;-80
2022/01/26 08:51:31;;;;;;;33.83;20.83;;;4.40;99.90;;;;;;5040891;28;20422;-81
2022/01/26 08:53:57;;;;;;;35.55;21.38;;;4.60;99.90;;;;;;5042484;28;20811;-81
2022/01/26 08:56:23;;;;;;;32.78;20.67;;;4.60;99.90;;;;;;4973805;28;20467;-82
2022/01/26 08:58:48;;;;;;;35.60;21.73;;;4.60;99.90;;;;;;5039691;28;20415;-81
2022/01/26 09:01:14;;;;;;;33.70;20.90;;;4.60;99.90;;;;;;4973860;28;20374;-81
2022/01/26 09:03:40;;;;;;;37.58;22.10;;;4.50;99.90;;;;;;5042737;28;20402;-81
2022/01/26 09:06:07;;;;;;;35.55;21.75;;;4.50;99.90;;;;;;4974283;28;20457;-81
2022/01/26 09:08:33;;;;;;;33.90;21.27;;;4.50;99.90;;;;;;4975096;28;20458;-81
2022/01/26 09:11:01;;;;;;;35.55;21.77;;;4.50;99.90;;;;;;5040170;28;20421;-80
2022/01/26 09:13:30;;;;;;;33.67;20.67;;;4.50;99.90;;;;;;4974874;28;20418;-81
2022/01/26 09:15:56;;;;;;;34.75;21.88;;;4.50;99.90;;;;;;5041785;28;20443;-80
2022/01/26 09:18:33;;;;;;;37.08;21.40;;;4.50;99.90;;;;;;4973486;28;20778;-80
2022/01/26 09:20:59;;;;;;;34.33;21.98;;;4.60;99.90;;;;;;5041490;28;20831;-80
2022/01/26 09:23:25;;;;;;;31.23;20.70;;;4.50;99.90;;;;;;4975952;28;20447;-80
2022/01/26 09:25:50;;;;;;;32.03;20.50;;;4.50;99.90;;;;;;5042773;28;20383;-80
2022/01/26 09:28:16;;;;;;;31.45;19.77;;;4.70;99.90;;;;;;5042265;28;20454;-80
2022/01/26 09:30:42;;;;;;;30.55;18.92;;;4.60;99.90;;;;;;4974708;28;20411;-80
2022/01/26 09:33:07;;;;;;;28.83;18.27;;;4.60;99.90;;;;;;5040821;28;20431;-80
2022/01/26 09:35:33;;;;;;;26.57;16.73;;;4.60;99.90;;;;;;5039332;28;20382;-81
2022/01/26 09:37:58;;;;;;;22.52;16.48;;;4.70;99.90;;;;;;4971541;28;20371;-79
2022/01/26 09:40:24;;;;;;;23.27;15.80;;;4.70;99.90;;;;;;4971452;28;20414;-81
2022/01/26 09:42:51;;;;;;;22.47;15.20;;;4.80;99.90;;;;;;4973210;28;20777;-80
2022/01/26 09:45:17;;;;;;;20.27;14.70;;;4.80;99.90;;;;;;5040572;28;20473;-80
2022/01/26 09:47:44;;;;;;;19.15;14.23;;;4.90;99.90;;;;;;4971008;28;20439;-79
2022/01/26 09:50:10;;;;;;;18.48;13.95;;;5.00;99.90;;;;;;4973393;28;20390;-80
2022/01/26 09:52:41;;;;;;;19.37;13.30;;;5.00;99.90;;;;;;4972256;28;20406;-80
2022/01/26 09:55:09;;;;;;;19.85;14.10;;;5.10;99.90;;;;;;5036544;28;20907;-80
2022/01/26 09:57:38;;;;;;;19.52;14.07;;;5.10;99.90;;;;;;4973667;28;20399;-80
2022/01/26 10:00:05;;;;;;;19.35;14.20;;;5.10;99.90;;;;;;4972346;28;20402;-80
2022/01/26 10:02:33;;;;;;;19.30;14.10;;;5.30;99.90;;;;;;5041449;28;20895;-80
2022/01/26 10:05:04;;;;;;;19.95;14.13;;;5.30;99.90;;;;;;4976678;28;20378;-80
2022/01/26 10:10:17;;;;;;;21.67;14.60;;;5.30;99.90;;;;;;4975319;28;20772;-80
2022/01/26 10:15:55;;;;;;;21.40;14.50;;;5.10;99.90;;;;;;4971253;28;20390;-80
2022/01/26 10:18:21;;;;;;;19.17;13.18;;;5.20;99.90;;;;;;5020982;28;20416;-79
2022/01/26 10:20:56;;;;;;;17.83;12.87;;;5.10;99.90;;;;;;4954251;28;20381;-79
2022/01/26 10:23:25;;;;;;;16.52;12.40;;;5.00;99.90;;;;;;5021917;28;20471;-80
2022/01/26 10:26:04;;;;;;;16.55;12.27;;;5.00;99.90;;;;;;4955917;28;20413;-80
2022/01/26 10:28:41;;;;;;;17.75;12.40;;;4.90;99.90;;;;;;4965846;28;20475;-80
2022/01/26 10:31:32;;;;;;;16.88;12.13;;;4.90;99.90;;;;;;4970343;28;20455;-79
2022/01/26 10:33:59;;;;;;;16.33;11.30;;;4.80;99.90;;;;;;4972167;28;20896;-81
2022/01/26 10:37:00;;;;;;;16.60;11.95;;;4.60;99.90;;;;;;5037333;28;20391;-79
2022/01/26 10:39:44;;;;;;;16.35;11.95;;;4.60;99.90;;;;;;5026588;28;20972;-81
2022/01/26 10:42:13;;;;;;;18.00;11.80;;;4.60;99.90;;;;;;5035172;28;20486;-79
2022/01/26 10:44:51;;;;;;;15.35;11.52;;;4.50;99.90;;;;;;4966937;28;20468;-80
2022/01/26 10:47:31;;;;;;;17.13;12.13;;;4.40;99.90;;;;;;4966136;28;20442;-80
2022/01/26 10:50:08;;;;;;;15.95;12.10;;;4.40;99.90;;;;;;5035351;28;20403;-80
2022/01/26 10:52:36;;;;;;;18.02;12.95;;;4.40;99.90;;;;;;4964919;28;20425;-80
2022/01/26 10:55:08;;;;;;;17.00;12.35;;;4.40;99.90;;;;;;5034696;28;20407;-81
2022/01/26 10:57:35;;;;;;;17.75;12.75;;;4.40;99.90;;;;;;4967285;28;20387;-81
2022/01/26 11:00:02;;;;;;;17.00;12.20;;;4.40;99.90;;;;;;4966024;28;20395;-81
2022/01/26 11:02:28;;;;;;;16.77;12.80;;;4.40;99.90;;;;;;4967271;28;20394;-82
2022/01/26 11:04:54;;;;;;;17.63;12.30;;;4.40;99.90;;;;;;4966855;28;20945;-80
2022/01/26 11:07:29;;;;;;;15.95;11.52;;;4.30;99.90;;;;;;4967605;28;20466;-81
2022/01/26 11:09:54;;;;;;;17.77;11.85;;;4.30;99.90;;;;;;5033047;28;20781;-81
2022/01/26 11:12:28;;;;;;;18.20;12.63;;;4.20;99.90;;;;;;4968618;28;20407;-80
2022/01/26 11:15:09;;;;;;;16.23;11.85;;;4.20;99.90;;;;;;5038794;28;20452;-81
2022/01/26 11:17:37;;;;;;;16.55;12.35;;;4.10;99.90;;;;;;5033572;28;20402;-80
2022/01/26 11:20:20;;;;;;;16.95;11.93;;;4.10;99.90;;;;;;4970180;28;20436;-81
2022/01/26 11:22:55;;;;;;;18.73;12.85;;;4.00;99.90;;;;;;4970559;28;21151;-81
2022/01/26 11:25:22;;;;;;;18.73;13.63;;;4.00;99.90;;;;;;4971414;28;20924;-80
2022/01/26 11:27:48;;;;;;;20.87;13.67;;;3.90;99.90;;;;;;5039358;28;20394;-81
2022/01/26 11:30:32;;;;;;;18.92;13.63;;;4.00;99.90;;;;;;4970638;28;20391;-81
2022/01/26 11:33:02;;;;;;;20.83;13.63;;;4.00;99.90;;;;;;4972078;28;20478;-82
2022/01/26 11:35:38;;;;;;;20.60;14.25;;;4.00;99.90;;;;;;4973963;28;20394;-81
2022/01/26 11:38:29;;;;;;;18.90;13.23;;;4.00;99.90;;;;;;5038960;28;21115;-82
2022/01/26 11:46:27;;;;;;;18.30;12.43;;;3.80;99.90;;;;;;4973356;28;21039;-82
2022/01/26 11:49:26;;;;;;;20.25;13.48;;;3.90;99.90;;;;;;4988939;28;21217;-81
2022/01/26 11:51:57;;;;;;;19.80;13.52;;;3.90;99.90;;;;;;5005720;28;20425;-81
2022/01/26 11:54:28;;;;;;;20.65;13.25;;;3.90;99.90;;;;;;5039804;28;20421;-81
2022/01/26 11:57:06;;;;;;;19.38;13.27;;;3.80;99.90;;;;;;5039539;28;20402;-81
2022/01/26 11:59:34;;;;;;;20.50;13.30;;;3.90;99.90;;;;;;5036966;28;20406;-81
2022/01/26 12:02:04;;;;;;;20.65;13.73;;;3.90;99.90;;;;;;5038472;28;20952;-81
2022/01/26 12:04:33;;;;;;;19.95;12.80;;;3.90;99.90;;;;;;4972438;28;20395;-81
2022/01/26 12:07:18;;;;;;;18.58;12.60;;;3.90;99.90;;;;;;5038732;28;20407;-80
2022/01/26 12:09:44;;;;;;;20.58;12.73;;;4.00;99.90;;;;;;5038692;28;20445;-80
2022/01/26 12:12:17;;;;;;;21.20;12.90;;;4.10;99.90;;;;;;4971136;28;20406;-80
2022/01/26 12:14:46;;;;;;;20.15;11.82;;;4.20;99.90;;;;;;4972434;28;20991;-80
2022/01/26 12:17:24;;;;;;;18.65;12.55;;;4.20;99.90;;;;;;4971246;28;20398;-81
2022/01/26 12:32:00;;;;;;;19.83;12.82;;;4.20;99.90;;;;;;5039825;28;20448;-79
2022/01/26 12:37:20;;;;;;;25.92;14.48;;;4.00;99.90;;;;;;4972768;28;20395;-79
2022/01/26 12:45:15;;;;;;;24.08;14.05;;;4.00;99.90;;;;;;4973048;28;20525;-80
2022/01/26 12:47:42;;;;;;;22.42;13.40;;;3.90;99.90;;;;;;4975028;28;20395;-81
2022/01/26 12:50:08;;;;;;;23.98;14.75;;;3.80;99.90;;;;;;4972387;28;20460;-81
2022/01/26 12:52:35;;;;;;;24.33;15.52;;;3.90;99.90;;;;;;5040231;28;20403;-80
2022/01/26 12:55:01;;;;;;;27.90;16.25;;;3.90;99.90;;;;;;5039785;28;20418;-79
2022/01/26 12:57:27;;;;;;;27.20;15.40;;;3.80;99.90;;;;;;4972639;28;20395;-79
2022/01/26 13:00:04;;;;;;;27.13;15.63;;;3.70;99.90;;;;;;4972286;28;20448;-80
2022/01/26 13:02:30;;;;;;;27.88;15.20;;;3.70;99.90;;;;;;4971038;28;20443;-80
2022/01/26 13:05:00;;;;;;;27.15;15.48;;;3.80;99.90;;;;;;4971330;28;20911;-80
2022/01/26 13:07:26;;;;;;;26.52;15.38;;;3.70;99.90;;;;;;4971690;28;20395;-80
2022/01/26 13:09:52;;;;;;;29.77;15.93;;;3.80;99.90;;;;;;5036577;28;20425;-79
2022/01/26 13:12:30;;;;;;;29.00;16.83;;;3.90;99.90;;;;;;4972623;28;20426;-80
2022/01/26 13:15:07;;;;;;;30.92;16.98;;;3.90;99.90;;;;;;5038817;28;20444;-80
2022/01/26 13:17:41;;;;;;;28.67;16.80;;;4.00;99.90;;;;;;5037681;28;20402;-80
2022/01/26 13:31:08;;;;;;;37.30;20.73;;;3.90;99.90;;;;;;4975685;28;20422;-82
2022/01/26 13:36:33;;;;;;;38.83;21.65;;;3.80;99.90;;;;;;4963443;28;20386;-80
2022/01/26 14:01:45;;;;;;;47.47;25.95;;;3.50;99.90;;;;;;4969321;28;20544;-81
2022/01/26 14:04:14;;;;;;;49.90;26.20;;;3.60;99.90;;;;;;5036891;28;20434;-81
2022/01/26 14:06:41;;;;;;;47.95;25.58;;;3.50;99.90;;;;;;4970896;28;20395;-80
2022/01/26 14:09:06;;;;;;;48.70;26.77;;;3.50;99.90;;;;;;4961409;28;20406;-81
2022/01/26 14:11:32;;;;;;;50.80;26.48;;;3.50;99.90;;;;;;4960097;28;21192;-81
2022/01/26 14:13:59;;;;;;;43.60;23.80;;;3.40;99.90;;;;;;4964720;28;20511;-81
2022/01/26 14:16:27;;;;;;;46.65;24.05;;;3.30;99.90;;;;;;4959947;28;20384;-81
2022/01/26 14:26:44;;;;;;;51.43;26.10;;;3.30;99.90;;;;;;4959040;28;20476;-80
2022/01/26 14:29:33;;;;;;;51.30;27.00;;;3.30;99.90;;;;;;4972667;28;20453;-80
2022/01/26 14:32:15;;;;;;;49.70;26.60;;;3.30;99.90;;;;;;4963060;28;20418;-80
2022/01/26 14:35:05;;;;;;;53.67;26.77;;;3.20;99.90;;;;;;4971226;28;20398;-81
2022/01/26 14:51:15;;;;;;;51.83;25.83;;;3.20;99.90;;;;;;4971155;28;20425;-81
2022/01/26 15:40:34;;;;;;;75.47;35.50;;;3.00;99.90;;;;;;4963710;28;20392;-82
2022/01/26 15:50:57;;;;;;;80.27;37.47;;;3.10;99.90;;;;;;4976502;28;20515;-81
2022/01/26 15:59:03;;;;;;;84.40;40.10;;;3.00;99.90;;;;;;4972524;28;20481;-81
2022/01/26 16:04:24;;;;;;;89.30;41.75;;;3.00;99.90;;;;;;4973380;28;20390;-81
2022/01/26 16:20:22;;;;;;;93.50;42.00;;;3.10;99.90;;;;;;4974636;28;20383;-80
2022/01/26 16:35:10;;;;;;;107.70;48.67;;;3.10;99.90;;;;;;4975083;28;20472;-80
2022/01/26 17:13:09;;;;;;;113.70;53.53;;;3.10;99.90;;;;;;4994898;28;20828;-80
2022/01/26 18:49:11;;;;;;;121.00;57.95;;;3.50;99.90;;;;;;4964350;28;20485;-80
2022/01/26 18:49:41;;;;;;;120.03;59.20;;;3.50;99.90;;;;;;4963111;28;20394;-80
2022/01/26 18:52:08;;;;;;;128.43;61.13;;;3.50;99.90;;;;;;5031738;28;20746;-80
2022/01/26 18:54:40;;;;;;;120.88;58.25;;;3.50;99.90;;;;;;4964603;28;20399;-81
2022/01/26 18:57:11;;;;;;;121.90;57.97;;;3.50;99.90;;;;;;4965300;28;20528;-81
2022/01/26 18:59:38;;;;;;;126.80;59.65;;;3.50;99.90;;;;;;4966672;28;20498;-81
2022/01/26 19:02:04;;;;;;;121.80;59.05;;;3.50;99.90;;;;;;4967681;28;20867;-80
2022/01/26 19:07:03;;;;;;;121.45;57.63;;;3.40;99.90;;;;;;4964351;28;20774;-80
2022/01/26 19:09:34;;;;;;;116.53;56.88;;;3.40;99.90;;;;;;4965177;28;20385;-80
2022/01/26 19:12:02;;;;;;;118.15;56.92;;;3.50;99.90;;;;;;5029904;28;20884;-79
2022/01/26 19:14:34;;;;;;;124.90;59.45;;;3.60;99.90;;;;;;4963309;28;20413;-80
2022/01/26 19:24:48;;;;;;;118.35;57.70;;;3.60;99.90;;;;;;4964759;28;20406;-80
2022/01/26 19:32:45;;;;;;;113.47;54.85;;;3.60;99.90;;;;;;4975739;28;20420;-79
2022/01/26 19:51:20;;;;;;;111.60;54.67;;;3.60;99.90;;;;;;4967893;28;20423;-79
2022/01/26 19:53:45;;;;;;;114.53;56.65;;;3.60;99.90;;;;;;4969299;28;20384;-80
2022/01/26 19:56:13;;;;;;;110.00;53.97;;;3.60;99.90;;;;;;4975568;28;20764;-81